sensor_id;sensor_type;location;lat;lon;timestamp;temperature;humidity
13596;DHT22;6868;52.544;13.416;2023-06-10T00:02:25;15.50;99.90
13596;DHT22;6868;52.544;13.416;2023-06-10T00:04:52;15.50;99.90
13596;DHT22;6868;52.544;13.416;2023-06-10T00:07:19;15.50;99.90
13596;DHT22;6868;52.544;13.416;2023-06-10T00:09:45;15.50;99.90
13596;DHT22;6868;52.544;13.416;2023-06-10T00:12:14;15.50;99.90
13596;DHT22;6868;52.544;13.416;2023-06-10T00:14:42;15.40;99.90
13596;DHT22;6868;52.544;13.416;2023-06-10T00:17:09;15.40;99.90
13596;DHT22;6868;52.544;13.416;2023-06-10T00:19:36;15.30;99.90
13596;DHT22;6868;52.544;13.416;2023-06-10T00:22:05;15.40;99.90
13596;DHT22;6868;52.544;13.416;2023-06-10T00:24:32;15.30;99.90
13596;DHT22;6868;52.544;13.416;2023-06-10T00:26:59;15.30;99.90
13596;DHT22;6868;52.544;13.416;2023-06-10T00:29:27;15.30;99.90
13596;DHT22;6868;52.544;13.416;2023-06-10T00:31:53;15.30;99.90
13596;DHT22;6868;52.544;13.416;2023-06-10T00:34:23;15.30;99.90
13596;DHT22;6868;52.544;13.416;2023-06-10T00:36:51;15.30;99.90
13596;DHT22;6868;52.544;13.416;2023-06-10T00:39:18;15.20;99.90
13596;DHT22;6868;52.544;13.416;2023-06-10T00:41:45;15.20;99.90
13596;DHT22;6868;52.544;13.416;2023-06-10T00:44:12;15.20;99.90
13596;DHT22;6868;52.544;13.416;2023-06-10T00:46:40;15.10;99.90
13596;DHT22;6868;52.544;13.416;2023-06-10T00:49:07;15.10;99.90
13596;DHT22;6868;52.544;13.416;2023-06-10T00:51:34;15.10;99.90
13596;DHT22;6868;52.544;13.416;2023-06-10T00:54:01;15.10;99.90
13596;DHT22;6868;52.544;13.416;2023-06-10T00:56:28;15.00;99.90
13596;DHT22;6868;52.544;13.416;2023-06-10T00:58:55;15.00;99.90
13596;DHT22;6868;52.544;13.416;2023-06-10T01:01:22;15.00;99.90
13596;DHT22;6868;52.544;13.416;2023-06-10T01:03:50;15.00;99.90
13596;DHT22;6868;52.544;13.416;2023-06-10T01:06:19;15.00;99.90
13596;DHT22;6868;52.544;13.416;2023-06-10T01:08:48;15.00;99.90
13596;DHT22;6868;52.544;13.416;2023-06-10T01:11:17;15.00;99.90
13596;DHT22;6868;52.544;13.416;2023-06-10T01:13:46;14.90;99.90
13596;DHT22;6868;52.544;13.416;2023-06-10T01:16:14;14.90;99.90
13596;DHT22;6868;52.544;13.416;2023-06-10T01:18:40;14.90;99.90
13596;DHT22;6868;52.544;13.416;2023-06-10T01:23:38;14.80;99.90
13596;DHT22;6868;52.544;13.416;2023-06-10T01:26:06;14.80;99.90
13596;DHT22;6868;52.544;13.416;2023-06-10T01:28:36;14.70;99.90
13596;DHT22;6868;52.544;13.416;2023-06-10T01:31:06;14.70;99.90
13596;DHT22;6868;52.544;13.416;2023-06-10T01:33:35;14.70;99.90
13596;DHT22;6868;52.544;13.416;2023-06-10T01:36:02;14.80;99.90
13596;DHT22;6868;52.544;13.416;2023-06-10T01:38:30;14.70;99.90
13596;DHT22;6868;52.544;13.416;2023-06-10T01:41:00;14.60;99.90
13596;DHT22;6868;52.544;13.416;2023-06-10T01:43:27;14.60;99.90
13596;DHT22;6868;52.544;13.416;2023-06-10T01:45:54;14.60;99.90
13596;DHT22;6868;52.544;13.416;2023-06-10T01:48:20;14.60;99.90
13596;DHT22;6868;52.544;13.416;2023-06-10T01:50:47;14.40;99.90
13596;DHT22;6868;52.544;13.416;2023-06-10T01:53:14;14.50;99.90
13596;DHT22;6868;52.544;13.416;2023-06-10T01:55:41;14.50;99.90
13596;DHT22;6868;52.544;13.416;2023-06-10T01:58:09;14.50;99.90
13596;DHT22;6868;52.544;13.416;2023-06-10T02:00:35;14.50;99.90
13596;DHT22;6868;52.544;13.416;2023-06-10T02:03:02;14.50;99.90
13596;DHT22;6868;52.544;13.416;2023-06-10T02:05:29;14.50;99.90
13596;DHT22;6868;52.544;13.416;2023-06-10T02:07:56;14.50;99.90
13596;DHT22;6868;52.544;13.416;2023-06-10T02:10:22;14.40;99.90
13596;DHT22;6868;52.544;13.416;2023-06-10T02:12:49;14.40;99.90
13596;DHT22;6868;52.544;13.416;2023-06-10T02:15:18;14.40;99.90
13596;DHT22;6868;52.544;13.416;2023-06-10T02:17:44;14.40;99.90
13596;DHT22;6868;52.544;13.416;2023-06-10T02:20:11;14.30;99.90
13596;DHT22;6868;52.544;13.416;2023-06-10T02:22:39;14.40;99.90
13596;DHT22;6868;52.544;13.416;2023-06-10T02:25:06;14.30;99.90
13596;DHT22;6868;52.544;13.416;2023-06-10T02:27:32;14.40;99.90
13596;DHT22;6868;52.544;13.416;2023-06-10T02:29:59;14.40;99.90
13596;DHT22;6868;52.544;13.416;2023-06-10T02:32:27;14.40;99.90
13596;DHT22;6868;52.544;13.416;2023-06-10T02:34:55;14.40;99.90
13596;DHT22;6868;52.544;13.416;2023-06-10T02:37:21;14.30;99.90
13596;DHT22;6868;52.544;13.416;2023-06-10T02:39:48;14.30;99.90
13596;DHT22;6868;52.544;13.416;2023-06-10T02:42:15;14.30;99.90
13596;DHT22;6868;52.544;13.416;2023-06-10T02:44:42;14.30;99.90
13596;DHT22;6868;52.544;13.416;2023-06-10T02:47:08;14.20;99.90
13596;DHT22;6868;52.544;13.416;2023-06-10T02:49:36;14.20;99.90
13596;DHT22;6868;52.544;13.416;2023-06-10T02:52:03;14.20;99.90
13596;DHT22;6868;52.544;13.416;2023-06-10T02:54:34;14.20;99.90
13596;DHT22;6868;52.544;13.416;2023-06-10T02:57:01;14.10;99.90
13596;DHT22;6868;52.544;13.416;2023-06-10T02:59:29;14.10;99.90
13596;DHT22;6868;52.544;13.416;2023-06-10T03:01:56;14.10;99.90
13596;DHT22;6868;52.544;13.416;2023-06-10T03:04:26;14.10;99.90
13596;DHT22;6868;52.544;13.416;2023-06-10T03:06:55;14.10;99.90
13596;DHT22;6868;52.544;13.416;2023-06-10T03:09:22;14.10;99.90
13596;DHT22;6868;52.544;13.416;2023-06-10T03:11:49;14.20;99.90
13596;DHT22;6868;52.544;13.416;2023-06-10T03:14:15;14.10;99.90
13596;DHT22;6868;52.544;13.416;2023-06-10T03:16:42;14.10;99.90
13596;DHT22;6868;52.544;13.416;2023-06-10T03:19:11;14.10;99.90
13596;DHT22;6868;52.544;13.416;2023-06-10T03:21:37;14.10;99.90
13596;DHT22;6868;52.544;13.416;2023-06-10T03:24:06;14.10;99.90
13596;DHT22;6868;52.544;13.416;2023-06-10T03:26:33;14.10;99.90
13596;DHT22;6868;52.544;13.416;2023-06-10T03:29:00;14.10;99.90
13596;DHT22;6868;52.544;13.416;2023-06-10T03:31:26;14.10;99.90
13596;DHT22;6868;52.544;13.416;2023-06-10T03:33:53;14.10;99.90
13596;DHT22;6868;52.544;13.416;2023-06-10T03:36:20;14.10;99.90
13596;DHT22;6868;52.544;13.416;2023-06-10T03:38:47;14.10;99.90
13596;DHT22;6868;52.544;13.416;2023-06-10T03:41:17;14.10;99.90
13596;DHT22;6868;52.544;13.416;2023-06-10T03:43:45;14.20;99.90
13596;DHT22;6868;52.544;13.416;2023-06-10T03:46:12;14.30;99.90
13596;DHT22;6868;52.544;13.416;2023-06-10T03:48:39;14.20;99.90
13596;DHT22;6868;52.544;13.416;2023-06-10T03:51:05;14.20;99.90
13596;DHT22;6868;52.544;13.416;2023-06-10T03:53:32;14.20;99.90
13596;DHT22;6868;52.544;13.416;2023-06-10T03:55:59;14.20;99.90
13596;DHT22;6868;52.544;13.416;2023-06-10T03:58:28;14.30;99.90
13596;DHT22;6868;52.544;13.416;2023-06-10T04:00:55;14.30;99.90
13596;DHT22;6868;52.544;13.416;2023-06-10T04:03:21;14.30;99.90
13596;DHT22;6868;52.544;13.416;2023-06-10T04:05:49;14.40;99.90
13596;DHT22;6868;52.544;13.416;2023-06-10T04:08:16;14.40;99.90
13596;DHT22;6868;52.544;13.416;2023-06-10T04:10:43;14.50;99.90
13596;DHT22;6868;52.544;13.416;2023-06-10T04:13:10;14.40;99.90
13596;DHT22;6868;52.544;13.416;2023-06-10T04:15:38;14.40;99.90
13596;DHT22;6868;52.544;13.416;2023-06-10T04:18:06;14.40;99.90
13596;DHT22;6868;52.544;13.416;2023-06-10T04:20:33;14.50;99.90
13596;DHT22;6868;52.544;13.416;2023-06-10T04:23:00;14.60;99.90
13596;DHT22;6868;52.544;13.416;2023-06-10T04:25:27;14.60;99.90
13596;DHT22;6868;52.544;13.416;2023-06-10T04:27:54;14.60;99.90
13596;DHT22;6868;52.544;13.416;2023-06-10T04:30:20;14.70;99.90
13596;DHT22;6868;52.544;13.416;2023-06-10T04:32:49;14.70;99.90
13596;DHT22;6868;52.544;13.416;2023-06-10T04:35:15;14.70;99.90
13596;DHT22;6868;52.544;13.416;2023-06-10T04:37:42;14.80;99.90
13596;DHT22;6868;52.544;13.416;2023-06-10T04:40:09;14.80;99.90
13596;DHT22;6868;52.544;13.416;2023-06-10T04:42:36;14.90;99.90
13596;DHT22;6868;52.544;13.416;2023-06-10T04:45:03;14.90;99.90
13596;DHT22;6868;52.544;13.416;2023-06-10T04:47:31;15.00;99.90
13596;DHT22;6868;52.544;13.416;2023-06-10T04:49:59;15.10;99.90
13596;DHT22;6868;52.544;13.416;2023-06-10T04:52:26;15.20;99.90
13596;DHT22;6868;52.544;13.416;2023-06-10T04:54:54;15.30;99.90
13596;DHT22;6868;52.544;13.416;2023-06-10T04:57:21;15.40;99.90
13596;DHT22;6868;52.544;13.416;2023-06-10T04:59:48;15.50;99.90
13596;DHT22;6868;52.544;13.416;2023-06-10T05:02:14;15.50;99.90
13596;DHT22;6868;52.544;13.416;2023-06-10T05:04:41;15.60;99.90
13596;DHT22;6868;52.544;13.416;2023-06-10T05:07:10;15.60;99.90
13596;DHT22;6868;52.544;13.416;2023-06-10T05:09:37;15.60;99.90
13596;DHT22;6868;52.544;13.416;2023-06-10T05:12:04;15.60;99.90
13596;DHT22;6868;52.544;13.416;2023-06-10T05:14:31;15.70;99.90
13596;DHT22;6868;52.544;13.416;2023-06-10T05:16:58;15.70;99.90
13596;DHT22;6868;52.544;13.416;2023-06-10T05:19:24;15.70;99.90
13596;DHT22;6868;52.544;13.416;2023-06-10T05:21:52;15.90;99.90
13596;DHT22;6868;52.544;13.416;2023-06-10T05:24:21;15.90;99.90
13596;DHT22;6868;52.544;13.416;2023-06-10T05:26:48;16.00;99.90
13596;DHT22;6868;52.544;13.416;2023-06-10T05:29:15;16.10;99.90
13596;DHT22;6868;52.544;13.416;2023-06-10T05:31:42;16.20;99.90
13596;DHT22;6868;52.544;13.416;2023-06-10T05:34:09;16.40;99.90
13596;DHT22;6868;52.544;13.416;2023-06-10T05:36:35;16.70;99.90
13596;DHT22;6868;52.544;13.416;2023-06-10T05:39:02;16.90;99.90
13596;DHT22;6868;52.544;13.416;2023-06-10T05:41:31;17.40;99.90
13596;DHT22;6868;52.544;13.416;2023-06-10T05:43:57;18.00;99.90
13596;DHT22;6868;52.544;13.416;2023-06-10T05:46:24;18.40;99.90
13596;DHT22;6868;52.544;13.416;2023-06-10T05:48:55;18.50;99.90
13596;DHT22;6868;52.544;13.416;2023-06-10T05:51:23;18.80;99.90
13596;DHT22;6868;52.544;13.416;2023-06-10T05:53:50;19.00;99.90
13596;DHT22;6868;52.544;13.416;2023-06-10T05:56:16;19.40;99.90
13596;DHT22;6868;52.544;13.416;2023-06-10T05:58:45;20.10;99.90
13596;DHT22;6868;52.544;13.416;2023-06-10T06:01:12;20.50;99.90
13596;DHT22;6868;52.544;13.416;2023-06-10T06:03:40;20.80;99.90
13596;DHT22;6868;52.544;13.416;2023-06-10T06:06:07;21.00;99.90
13596;DHT22;6868;52.544;13.416;2023-06-10T06:08:34;21.40;99.90
13596;DHT22;6868;52.544;13.416;2023-06-10T06:11:01;20.90;99.90
13596;DHT22;6868;52.544;13.416;2023-06-10T06:13:28;20.80;99.90
13596;DHT22;6868;52.544;13.416;2023-06-10T06:15:58;20.60;99.90
13596;DHT22;6868;52.544;13.416;2023-06-10T06:18:25;20.90;99.90
13596;DHT22;6868;52.544;13.416;2023-06-10T06:20:51;21.00;99.90
13596;DHT22;6868;52.544;13.416;2023-06-10T06:23:18;20.90;99.90
13596;DHT22;6868;52.544;13.416;2023-06-10T06:25:45;20.20;99.90
13596;DHT22;6868;52.544;13.416;2023-06-10T06:28:13;19.70;99.90
13596;DHT22;6868;52.544;13.416;2023-06-10T06:30:40;19.40;99.90
13596;DHT22;6868;52.544;13.416;2023-06-10T06:33:08;19.40;99.90
13596;DHT22;6868;52.544;13.416;2023-06-10T06:35:35;19.50;99.90
13596;DHT22;6868;52.544;13.416;2023-06-10T06:38:03;19.50;99.90
13596;DHT22;6868;52.544;13.416;2023-06-10T06:40:30;19.50;99.90
13596;DHT22;6868;52.544;13.416;2023-06-10T06:42:57;19.80;99.90
13596;DHT22;6868;52.544;13.416;2023-06-10T06:45:24;20.10;99.90
13596;DHT22;6868;52.544;13.416;2023-06-10T06:47:50;20.40;99.90
13596;DHT22;6868;52.544;13.416;2023-06-10T06:50:19;20.70;99.90
13596;DHT22;6868;52.544;13.416;2023-06-10T06:52:46;20.70;99.90
13596;DHT22;6868;52.544;13.416;2023-06-10T06:55:13;20.70;99.90
13596;DHT22;6868;52.544;13.416;2023-06-10T06:57:40;21.00;99.90
13596;DHT22;6868;52.544;13.416;2023-06-10T07:00:09;20.60;99.90
13596;DHT22;6868;52.544;13.416;2023-06-10T07:02:39;20.20;99.90
13596;DHT22;6868;52.544;13.416;2023-06-10T07:05:07;20.10;99.90
13596;DHT22;6868;52.544;13.416;2023-06-10T07:07:36;20.40;99.90
13596;DHT22;6868;52.544;13.416;2023-06-10T07:10:03;20.50;99.90
